createdAt,value
2022-10-05T00:00:53.429Z,100832.91
2022-10-05T00:03:22.659Z,100820.22
2022-10-05T00:05:50.026Z,100826.56
2022-10-05T00:08:25.410Z,100825.25
2022-10-05T00:10:52.712Z,100818.44
2022-10-05T00:13:26.046Z,100790.44
2022-10-05T00:16:07.807Z,100826.09
2022-10-05T00:18:34.606Z,100831.41
2022-10-05T00:21:02.064Z,100810.75
2022-10-05T00:23:32.316Z,100824.59
2022-10-05T00:26:11.893Z,100766.44
2022-10-05T00:28:40.608Z,100822.22
2022-10-05T00:31:17.290Z,100812.56
2022-10-05T00:33:44.149Z,100819.56
2022-10-05T00:36:11.113Z,100818.91
2022-10-05T00:38:38.216Z,100817.56
2022-10-05T00:41:39.353Z,100786.38
2022-10-05T00:44:12.076Z,100812.41
2022-10-05T00:46:57.237Z,100820.06
2022-10-05T00:50:01.885Z,100812.09
2022-10-05T00:52:36.960Z,100810.56
2022-10-05T00:55:26.648Z,100785.28
2022-10-05T00:57:59.373Z,100824.25
2022-10-05T01:00:27.935Z,100815.41
2022-10-05T01:03:00.553Z,100811.09
2022-10-05T01:05:48.781Z,100809.09
2022-10-05T01:08:18.414Z,100813.25
2022-10-05T01:10:52.715Z,100812.06
2022-10-05T01:13:28.682Z,100808.88
2022-10-05T01:16:05.005Z,100819.41
2022-10-05T01:18:50.645Z,100722.41
2022-10-05T01:21:23.058Z,100786.91
2022-10-05T01:24:14.342Z,100814.75
2022-10-05T01:27:05.331Z,100812.41
2022-10-05T01:29:49.767Z,100815.06
2022-10-05T01:32:31.819Z,100804.06
2022-10-05T01:35:07.774Z,100814.88
2022-10-05T01:37:42.231Z,100818.22
2022-10-05T01:40:16.138Z,100763.72
2022-10-05T01:42:45.758Z,100820.72
2022-10-05T01:45:47.627Z,100816.66
2022-10-05T01:48:17.341Z,100808.31
2022-10-05T01:51:02.630Z,100813.56
2022-10-05T01:53:42.865Z,100770.47
2022-10-05T01:56:41.612Z,100810.19
2022-10-05T01:59:19.010Z,100782.34
2022-10-05T02:01:54.990Z,100814.97
2022-10-05T02:05:00.886Z,100800.41
2022-10-05T02:07:36.167Z,100796.91
2022-10-05T02:10:14.911Z,100800.19
2022-10-05T02:12:43.143Z,100768.44
2022-10-05T02:15:17.982Z,100793.28
2022-10-05T02:17:49.242Z,100784.22
2022-10-05T02:20:23.733Z,100782.81
2022-10-05T02:22:54.832Z,100776.66
2022-10-05T02:25:38.932Z,100785.63
2022-10-05T02:28:18.777Z,100789.34
2022-10-05T02:30:53.074Z,100763.88
2022-10-05T02:33:38.574Z,100766.50
2022-10-05T02:36:34.721Z,100784.22
2022-10-05T02:39:10.395Z,100783.19
2022-10-05T02:41:48.202Z,100763.69
2022-10-05T02:44:23.793Z,100780.22
2022-10-05T02:46:57.430Z,100768.75
2022-10-05T02:49:24.611Z,100784.59
2022-10-05T02:52:03.349Z,100774.31
2022-10-05T02:54:40.248Z,100751.97
2022-10-05T02:57:19.009Z,100776.88
2022-10-05T03:00:04.684Z,100778.41
2022-10-05T03:02:44.342Z,100760.47
2022-10-05T03:05:17.428Z,100781.47
2022-10-05T03:08:22.428Z,100766.84
2022-10-05T03:11:04.744Z,100773.19
2022-10-05T03:13:49.809Z,100774.78
2022-10-05T03:16:38.528Z,100779.91
2022-10-05T03:19:22.441Z,100780.88
2022-10-05T03:22:01.060Z,100777.78
2022-10-05T03:24:36.767Z,100772.94
2022-10-05T03:27:22.891Z,100781.41
2022-10-05T03:30:08.138Z,100789.41
2022-10-05T03:32:54.801Z,100764.25
2022-10-05T03:35:43.016Z,100784.34
2022-10-05T03:38:31.330Z,100781.06
2022-10-05T03:41:35.215Z,100782.66
2022-10-05T03:44:12.644Z,100787.34
2022-10-05T03:46:48.945Z,100786.13
2022-10-05T03:49:36.060Z,100790.09
2022-10-05T03:52:12.849Z,100754.13
2022-10-05T03:54:48.759Z,100774.44
2022-10-05T03:57:26.705Z,100789.97
2022-10-05T04:00:12.962Z,100773.53
2022-10-05T04:02:57.528Z,100770.22
2022-10-05T04:05:30.034Z,100798.09
2022-10-05T04:08:01.780Z,100790.59
2022-10-05T04:10:35.694Z,100797.16
2022-10-05T04:13:15.693Z,100776.97
2022-10-05T04:16:10.129Z,100795.41
2022-10-05T04:18:47.785Z,100798.66
2022-10-05T04:21:51.755Z,100806.78
2022-10-05T04:24:32.535Z,100812.44
2022-10-05T04:27:03.350Z,100806.38
2022-10-05T04:30:12.674Z,100787.59
2022-10-05T04:32:43.387Z,100787.28
2022-10-05T04:35:15.871Z,100813.16
2022-10-05T04:38:01.149Z,100813.38
2022-10-05T04:40:33.885Z,100807.00
2022-10-05T04:43:24.342Z,100809.59
2022-10-05T04:45:51.101Z,100815.66
2022-10-05T04:48:20.718Z,100814.81
2022-10-05T04:51:00.263Z,100810.63
2022-10-05T04:54:06.356Z,100807.34
2022-10-05T04:56:39.963Z,100813.06
2022-10-05T04:59:50.946Z,100809.00
2022-10-05T05:02:25.320Z,100805.84
2022-10-05T05:05:10.702Z,100830.78
2022-10-05T05:07:49.321Z,100817.78
2022-10-05T05:10:25.007Z,100825.56
2022-10-05T05:13:00.665Z,100821.94
2022-10-05T05:15:50.475Z,100803.03
2022-10-05T05:18:26.637Z,100819.66
2022-10-05T05:21:02.463Z,100823.09
2022-10-05T05:23:39.642Z,100827.97
2022-10-05T05:26:40.213Z,100839.47
2022-10-05T05:29:30.990Z,100827.66
2022-10-05T05:32:01.134Z,100830.31
2022-10-05T05:34:55.897Z,100811.72
2022-10-05T05:37:28.470Z,100822.66
2022-10-05T05:40:03.915Z,100828.06
2022-10-05T05:42:43.503Z,100837.03
2022-10-05T05:45:20.466Z,100823.88
2022-10-05T05:47:54.011Z,100828.81
2022-10-05T05:50:38.811Z,100838.41
2022-10-05T05:53:17.237Z,100827.75
2022-10-05T05:55:50.706Z,100808.34
2022-10-05T05:58:17.421Z,100838.81
2022-10-05T06:00:54.412Z,100840.09
2022-10-05T06:03:21.187Z,100841.66
2022-10-05T06:05:52.910Z,100830.91
2022-10-05T06:08:43.523Z,100837.50
2022-10-05T06:11:18.267Z,100832.50
2022-10-05T06:13:45.530Z,100831.00
2022-10-05T06:16:24.766Z,100843.03
2022-10-05T06:18:58.918Z,100845.09
2022-10-05T06:21:34.733Z,100822.31
2022-10-05T06:24:24.611Z,100853.34
2022-10-05T06:27:03.197Z,100856.47
2022-10-05T06:29:48.169Z,100844.88
2022-10-05T06:32:28.948Z,100841.16
2022-10-05T06:35:07.990Z,100849.50
2022-10-05T06:37:56.382Z,100854.28
2022-10-05T06:40:57.940Z,100845.50
2022-10-05T06:43:39.865Z,100852.28
2022-10-05T06:46:19.716Z,100864.09
2022-10-05T06:49:18.774Z,100860.94
2022-10-05T06:51:51.318Z,100866.19
2022-10-05T06:54:30.173Z,100863.91
2022-10-05T06:57:15.817Z,100868.69
2022-10-05T06:59:52.078Z,100882.31
2022-10-05T07:02:29.776Z,100867.38
2022-10-05T07:05:42.736Z,100871.47
2022-10-05T07:08:37.793Z,100874.88
2022-10-05T07:11:20.909Z,100882.78
2022-10-05T07:14:03.707Z,100889.88
2022-10-05T07:16:52.078Z,100892.41
2022-10-05T07:19:40.618Z,100901.88
2022-10-05T07:22:31.786Z,100904.50
2022-10-05T07:25:22.042Z,100905.47
2022-10-05T07:28:06.035Z,100908.78
2022-10-05T07:30:44.585Z,100918.47
2022-10-05T07:33:22.183Z,100927.56
2022-10-05T07:36:23.326Z,100923.41
2022-10-05T07:39:07.966Z,100931.00
2022-10-05T07:41:46.153Z,100934.31
2022-10-05T07:44:38.326Z,100929.19
2022-10-05T07:47:13.448Z,100883.41
2022-10-05T07:49:43.445Z,100944.22
2022-10-05T07:52:19.378Z,100942.88
2022-10-05T07:54:53.277Z,100938.00
2022-10-05T07:57:30.184Z,100929.31
2022-10-05T08:00:13.841Z,100938.47
2022-10-05T08:03:11.670Z,100939.44
2022-10-05T08:05:42.619Z,100952.72
2022-10-05T08:08:14.418Z,100957.13
2022-10-05T08:10:56.189Z,100956.34
2022-10-05T08:13:43.615Z,100924.38
2022-10-05T08:16:15.147Z,100948.44
2022-10-05T08:19:00.029Z,100969.59
2022-10-05T08:21:41.560Z,100955.72
2022-10-05T08:24:20.499Z,100972.69
2022-10-05T08:26:59.925Z,100945.34
2022-10-05T08:29:37.841Z,100958.63
2022-10-05T08:32:15.633Z,100978.16
2022-10-05T08:34:51.466Z,100968.28
2022-10-05T08:37:29.390Z,101003.34
2022-10-05T08:40:14.798Z,100991.25
2022-10-05T08:42:41.525Z,101003.81
2022-10-05T08:45:54.115Z,100984.66
2022-10-05T08:48:58.114Z,100999.66
2022-10-05T08:51:27.542Z,101001.69
2022-10-05T08:54:09.294Z,101001.69
2022-10-05T08:56:53.780Z,100985.31
2022-10-05T08:59:57.756Z,101004.53
2022-10-05T09:02:52.869Z,100995.34
2022-10-05T09:05:38.106Z,101009.81
2022-10-05T09:08:23.666Z,100995.50
2022-10-05T09:11:03.918Z,101007.41
2022-10-05T09:13:31.641Z,101029.06
2022-10-05T09:16:32.615Z,101024.94
2022-10-05T09:19:02.514Z,101022.94
2022-10-05T09:21:41.862Z,101023.69
2022-10-05T09:24:14.793Z,101029.81
2022-10-05T09:26:42.982Z,101039.63
2022-10-05T09:29:57.369Z,101004.59
2022-10-05T09:32:44.596Z,101020.59
2022-10-05T09:35:21.584Z,101015.06
2022-10-05T09:37:48.217Z,101032.47
2022-10-05T09:40:24.031Z,101023.75
2022-10-05T09:43:20.472Z,101033.47
2022-10-05T09:45:48.980Z,101036.19
2022-10-05T09:48:45.487Z,100977.03
2022-10-05T09:51:36.767Z,101024.31
2022-10-05T09:54:21.543Z,101018.66
2022-10-05T09:57:15.112Z,100974.63
2022-10-05T10:00:21.206Z,101015.53
2022-10-05T10:03:04.976Z,101018.84
2022-10-05T10:05:34.809Z,101019.06
2022-10-05T10:08:23.570Z,101022.97
2022-10-05T10:11:02.330Z,101008.72
2022-10-05T10:13:41.166Z,101015.38
2022-10-05T10:16:27.017Z,101008.13
2022-10-05T10:19:01.176Z,101024.69
2022-10-05T10:22:00.295Z,101016.00
2022-10-05T10:24:52.057Z,101007.72
2022-10-05T10:27:41.959Z,100982.16
2022-10-05T10:30:47.569Z,101000.53
2022-10-05T10:33:16.869Z,101015.75
2022-10-05T10:36:07.009Z,100996.69
2022-10-05T10:39:07.000Z,100996.13
2022-10-05T10:42:14.118Z,100987.72
2022-10-05T10:44:59.091Z,100995.72
2022-10-05T10:47:44.433Z,100997.13
2022-10-05T10:50:28.377Z,100995.31
2022-10-05T10:54:02.716Z,100995.28
2022-10-05T10:56:47.723Z,100968.69
2022-10-05T10:59:46.836Z,101001.69
2022-10-05T11:02:42.469Z,100999.88
2022-10-05T11:05:38.215Z,101002.00
2022-10-05T11:08:22.899Z,100998.22
2022-10-05T11:11:22.836Z,100996.16
2022-10-05T11:14:16.642Z,101004.75
2022-10-05T11:17:17.163Z,101002.56
2022-10-05T11:20:05.742Z,100990.59
2022-10-05T11:22:42.428Z,101001.81
2022-10-05T11:25:33.932Z,100991.41
2022-10-05T11:28:40.194Z,100974.22
2022-10-05T11:31:12.895Z,100993.13
2022-10-05T11:33:43.103Z,101003.53
2022-10-05T11:36:37.952Z,100980.50
2022-10-05T11:39:23.517Z,100992.44
2022-10-05T11:42:08.046Z,100982.31
2022-10-05T11:45:00.789Z,100974.31
2022-10-05T11:47:39.634Z,100960.94
2022-10-05T11:50:32.781Z,100923.25
2022-10-05T11:53:23.161Z,100988.06
2022-10-05T11:56:00.413Z,100994.63
2022-10-05T11:58:33.809Z,100936.28
2022-10-05T12:01:34.799Z,100987.41
2022-10-05T12:04:27.768Z,100940.19
2022-10-05T12:07:08.129Z,100977.50
2022-10-05T12:10:02.857Z,100949.41
2022-10-05T12:12:37.164Z,100956.47
2022-10-05T12:15:10.390Z,100948.56
2022-10-05T12:17:48.831Z,100977.81
2022-10-05T12:20:40.318Z,100950.63
2022-10-05T12:23:25.059Z,100961.78
2022-10-05T12:26:02.200Z,100954.28
2022-10-05T12:28:49.950Z,100966.47
2022-10-05T12:31:43.780Z,100970.97
2022-10-05T12:34:16.894Z,100961.75
2022-10-05T12:37:16.326Z,100951.81
2022-10-05T12:40:12.502Z,100950.44
2022-10-05T12:42:52.037Z,100949.16
2022-10-05T12:45:36.996Z,100961.66
2022-10-05T12:48:19.207Z,100952.81
2022-10-05T12:50:51.485Z,100940.59
2022-10-05T12:53:33.376Z,100947.91
2022-10-05T12:56:30.743Z,100940.16
2022-10-05T12:59:42.695Z,100938.19
2022-10-05T13:02:25.093Z,100892.38
2022-10-05T13:05:11.996Z,100938.63
2022-10-05T13:07:48.698Z,100897.66
2022-10-05T13:10:24.791Z,100929.22
2022-10-05T13:13:12.729Z,100924.47
2022-10-05T13:15:56.565Z,100939.00
2022-10-05T13:18:29.492Z,100923.25
2022-10-05T13:21:12.841Z,100920.56
2022-10-05T13:23:53.750Z,100913.06
2022-10-05T13:26:34.165Z,100906.75
2022-10-05T13:29:22.502Z,100906.78
2022-10-05T13:31:55.754Z,100899.28
2022-10-05T13:34:38.656Z,100885.03
2022-10-05T13:37:31.857Z,100905.38
2022-10-05T13:40:02.025Z,100901.06
2022-10-05T13:42:41.287Z,100896.66
2022-10-05T13:45:26.579Z,100897.81
2022-10-05T13:48:27.474Z,100898.34
2022-10-05T13:51:05.291Z,100898.88
2022-10-05T13:53:42.677Z,100889.72
2022-10-05T13:56:33.244Z,100889.31
2022-10-05T13:59:33.136Z,100899.69
2022-10-05T14:02:07.812Z,100903.66
2022-10-05T14:04:51.195Z,100880.56
2022-10-05T14:07:31.702Z,100884.16
2022-10-05T14:10:02.227Z,100880.53
2022-10-05T14:12:29.040Z,100892.66
2022-10-05T14:15:12.897Z,100911.34
2022-10-05T14:17:42.464Z,100909.09
2022-10-05T14:20:27.481Z,100905.13
2022-10-05T14:23:01.915Z,100919.00
2022-10-05T14:25:31.052Z,100897.91
2022-10-05T14:28:00.633Z,100904.75
2022-10-05T14:30:30.122Z,100911.34
2022-10-05T14:33:05.690Z,100909.91
2022-10-05T14:35:56.057Z,100898.03
2022-10-05T14:38:23.053Z,100920.97
2022-10-05T14:41:13.406Z,100885.00
2022-10-05T14:44:07.330Z,100877.72
2022-10-05T14:46:36.682Z,100912.41
2022-10-05T14:49:21.335Z,100911.47
2022-10-05T14:51:49.676Z,100910.06
2022-10-05T14:54:46.576Z,100902.63
2022-10-05T14:57:40.830Z,100915.84
2022-10-05T15:00:18.905Z,100900.06
2022-10-05T15:02:45.610Z,100917.38
2022-10-05T15:05:53.992Z,100906.69
2022-10-05T15:08:53.710Z,100904.22
2022-10-05T15:11:34.793Z,100902.63
2022-10-05T15:14:06.406Z,100893.06
2022-10-05T15:16:38.486Z,100902.44
2022-10-05T15:19:24.418Z,100902.34
2022-10-05T15:22:10.640Z,100906.88
2022-10-05T15:24:56.055Z,100913.22
2022-10-05T15:27:35.708Z,100895.09
2022-10-05T15:30:12.655Z,100906.34
2022-10-05T15:32:51.234Z,100905.13
2022-10-05T15:36:00.770Z,100899.31
2022-10-05T15:38:29.500Z,100904.22
2022-10-05T15:41:18.335Z,100892.59
2022-10-05T15:43:55.379Z,100901.75
2022-10-05T15:46:47.165Z,100892.16
2022-10-05T15:49:16.704Z,100905.16
2022-10-05T15:52:07.663Z,100904.56
2022-10-05T15:55:01.963Z,100875.25
2022-10-05T15:57:48.731Z,100904.03
2022-10-05T16:00:23.600Z,100907.53
2022-10-05T16:03:12.281Z,100901.34
2022-10-05T16:06:08.906Z,100917.25
2022-10-05T16:08:55.924Z,100900.44
2022-10-05T16:11:40.922Z,100905.63
2022-10-05T16:14:10.425Z,100917.13
2022-10-05T16:16:42.424Z,100905.13
2022-10-05T16:19:12.665Z,100920.13
2022-10-05T16:21:44.291Z,100918.47
2022-10-05T16:24:35.678Z,100907.69
2022-10-05T16:27:16.342Z,100907.50
2022-10-05T16:30:11.863Z,100868.19
2022-10-05T16:32:46.498Z,100907.91
2022-10-05T16:35:25.331Z,100900.63
2022-10-05T16:38:05.753Z,100904.41
2022-10-05T16:41:01.073Z,100879.69
2022-10-05T16:43:34.734Z,100906.78
2022-10-05T16:46:22.166Z,100908.22
2022-10-05T16:49:01.409Z,100910.69
2022-10-05T16:51:28.143Z,100920.81
2022-10-05T16:54:18.542Z,100909.56
2022-10-05T16:56:52.127Z,100828.78
2022-10-05T16:59:46.984Z,100911.38
2022-10-05T17:02:35.442Z,100913.50
2022-10-05T17:05:40.102Z,100905.19
2022-10-05T17:08:27.908Z,100918.03
2022-10-05T17:11:19.955Z,100909.03
2022-10-05T17:14:08.265Z,100902.16
2022-10-05T17:17:05.486Z,100899.34
2022-10-05T17:20:01.250Z,100926.19
2022-10-05T17:22:42.787Z,100928.56
2022-10-05T17:25:27.856Z,100920.50
2022-10-05T17:28:33.402Z,100910.03
2022-10-05T17:31:15.223Z,100912.66
2022-10-05T17:34:00.397Z,100920.81
2022-10-05T17:36:49.234Z,100917.13
2022-10-05T17:39:22.113Z,100924.22
2022-10-05T17:41:49.401Z,100926.69
2022-10-05T17:44:19.630Z,100933.06
2022-10-05T17:47:01.097Z,100924.72
2022-10-05T17:50:15.426Z,100947.19
2022-10-05T17:53:03.062Z,100890.25
2022-10-05T17:55:45.023Z,100939.72
2022-10-05T17:58:24.133Z,100950.00
2022-10-05T18:00:57.167Z,100951.72
2022-10-05T18:04:11.587Z,100952.28
2022-10-05T18:07:27.867Z,100938.22
2022-10-05T18:09:59.257Z,100953.88
2022-10-05T18:12:41.677Z,100954.06
2022-10-05T18:15:09.472Z,100959.97
2022-10-05T18:18:25.756Z,100953.50
2022-10-05T18:21:14.141Z,100958.72
2022-10-05T18:24:23.289Z,100959.25
2022-10-05T18:27:05.289Z,100965.31
2022-10-05T18:30:05.532Z,100966.75
2022-10-05T18:32:38.321Z,100970.88
2022-10-05T18:35:32.720Z,100971.97
2022-10-05T18:38:19.621Z,100970.78
2022-10-05T18:40:55.833Z,100992.69
2022-10-05T18:43:34.836Z,100972.34
2022-10-05T18:46:27.414Z,100987.72
2022-10-05T18:49:08.127Z,100969.06
2022-10-05T18:51:51.008Z,100988.06
2022-10-05T18:54:57.541Z,100986.88
2022-10-05T18:57:33.102Z,100995.56
2022-10-05T19:00:08.038Z,101000.25
2022-10-05T19:02:40.510Z,100996.25
2022-10-05T19:05:49.113Z,100992.38
2022-10-05T19:08:53.621Z,101000.38
2022-10-05T19:11:36.605Z,100978.91
2022-10-05T19:14:21.843Z,101007.75
2022-10-05T19:17:01.588Z,100994.72
2022-10-05T19:19:49.273Z,101002.06
2022-10-05T19:22:26.584Z,101013.41
2022-10-05T19:25:17.494Z,101008.91
2022-10-05T19:28:14.248Z,101003.72
2022-10-05T19:30:53.758Z,101010.25
2022-10-05T19:33:37.876Z,101005.75
2022-10-05T19:36:17.066Z,101008.09
2022-10-05T19:39:06.649Z,101003.09
2022-10-05T19:42:10.602Z,101004.94
2022-10-05T19:44:57.592Z,101011.75
2022-10-05T19:47:45.512Z,101013.44
2022-10-05T19:50:27.882Z,101018.97
2022-10-05T19:53:11.392Z,101024.63
2022-10-05T19:55:41.920Z,101026.75
2022-10-05T19:58:40.092Z,101011.09
2022-10-05T20:01:11.508Z,101018.59
2022-10-05T20:03:38.722Z,101011.28
2022-10-05T20:06:08.171Z,101016.94
2022-10-05T20:08:47.122Z,101033.47
2022-10-05T20:11:17.516Z,101007.44
2022-10-05T20:14:09.679Z,101027.28
2022-10-05T20:16:55.382Z,101025.13
2022-10-05T20:20:06.748Z,101037.31
2022-10-05T20:22:36.118Z,101047.63
2022-10-05T20:25:06.507Z,101039.13
2022-10-05T20:27:42.245Z,101041.66
2022-10-05T20:30:11.653Z,101055.13
2022-10-05T20:32:38.676Z,101053.16
2022-10-05T20:35:07.073Z,101023.94
2022-10-05T20:37:34.217Z,101041.28
2022-10-05T20:40:00.941Z,101035.78
2022-10-05T20:42:27.653Z,101045.13
2022-10-05T20:44:57.010Z,101048.47
2022-10-05T20:47:24.797Z,101047.81
2022-10-05T20:49:53.477Z,101039.47
2022-10-05T20:52:21.277Z,101052.81
2022-10-05T20:54:48.174Z,101051.47
2022-10-05T20:57:14.981Z,101025.47
2022-10-05T20:59:41.864Z,101050.47
2022-10-05T21:02:08.741Z,101047.47
2022-10-05T21:04:40.817Z,101038.63
2022-10-05T21:07:08.532Z,101025.28
2022-10-05T21:09:38.161Z,101042.16
2022-10-05T21:12:05.000Z,101056.31
2022-10-05T21:14:34.658Z,101056.97
2022-10-05T21:17:05.197Z,101049.31
2022-10-05T21:19:38.470Z,101054.16
2022-10-05T21:22:10.013Z,101062.16
2022-10-05T21:24:38.929Z,101060.50
2022-10-05T21:27:06.269Z,101062.47
2022-10-05T21:29:34.442Z,101039.78
2022-10-05T21:32:01.389Z,101022.06
2022-10-05T21:34:28.838Z,101074.78
2022-10-05T21:36:55.678Z,101070.81
2022-10-05T21:39:22.562Z,101055.44
2022-10-05T21:41:49.875Z,101058.09
2022-10-05T21:44:16.848Z,101056.75
2022-10-05T21:46:43.920Z,101068.13
2022-10-05T21:49:11.027Z,101065.47
2022-10-05T21:51:38.787Z,101054.78
2022-10-05T21:54:24.515Z,101027.88
2022-10-05T21:56:54.844Z,101047.59
2022-10-05T21:59:27.204Z,101034.59
2022-10-05T22:01:54.105Z,101051.09
2022-10-05T22:04:20.983Z,101047.59
2022-10-05T22:06:49.224Z,101034.09
2022-10-05T22:09:15.949Z,101046.59
2022-10-05T22:11:42.693Z,101040.56
2022-10-05T22:14:09.630Z,101049.91
2022-10-05T22:16:38.952Z,101039.91
2022-10-05T22:19:10.968Z,101072.13
2022-10-05T22:21:41.675Z,101069.44
2022-10-05T22:24:11.733Z,101057.75
2022-10-05T22:26:39.110Z,101066.28
2022-10-05T22:29:05.904Z,101076.81
2022-10-05T22:31:32.901Z,101030.31
2022-10-05T22:33:59.643Z,101055.03
2022-10-05T22:36:26.923Z,101057.03
2022-10-05T22:38:53.753Z,101068.56
2022-10-05T22:41:20.993Z,101079.75
2022-10-05T22:43:50.403Z,101054.50
2022-10-05T22:46:17.562Z,101046.66
2022-10-05T22:48:44.366Z,101071.84
2022-10-05T22:51:11.111Z,101064.19
2022-10-05T22:53:38.287Z,101065.38
2022-10-05T22:56:11.054Z,101063.66
2022-10-05T22:58:38.302Z,101064.84
2022-10-05T23:01:08.109Z,101024.31
2022-10-05T23:03:35.503Z,101045.78
2022-10-05T23:06:05.295Z,101039.59
2022-10-05T23:08:33.380Z,101051.63
2022-10-05T23:11:07.255Z,101032.59
2022-10-05T23:13:34.416Z,101043.31
2022-10-05T23:16:14.256Z,101042.13
2022-10-05T23:18:42.562Z,101044.00
2022-10-05T23:21:10.537Z,101043.81
2022-10-05T23:23:43.633Z,101011.09
2022-10-05T23:26:12.149Z,101031.63
2022-10-05T23:28:40.617Z,101035.97
2022-10-05T23:31:08.975Z,101017.41
2022-10-05T23:33:35.857Z,101054.28
2022-10-05T23:36:06.348Z,101029.44
2022-10-05T23:38:34.475Z,101057.28
2022-10-05T23:41:02.631Z,101055.44
2022-10-05T23:43:29.974Z,101038.94
2022-10-05T23:45:56.932Z,101049.28
2022-10-05T23:48:23.673Z,101035.94
2022-10-05T23:50:50.610Z,101036.28
2022-10-05T23:53:18.011Z,101030.28
2022-10-05T23:55:45.236Z,101051.97
2022-10-05T23:58:12.004Z,101044.97
